Time;durP1;ratioP1;P1;durP2;ratioP2;P2;SDS_P1;SDS_P2;PMS_P1;PMS_P2;Temp;Humidity;BMP_temperature;BMP_pressure;BME280_temperature;BME280_humidity;BME280_pressure;Samples;Min_cycle;Max_cycle;Signal;HPM_P1;HPM_P2
2023/09/13 00:01:37;;;;;;;0.50;0.50;;;;;;;9.61;91.06;99829.31;6243836;23;20070;-81
2023/09/13 00:04:05;;;;;;;0.60;0.60;;;;;;;9.61;91.23;99832.00;6253803;23;20020;-84
2023/09/13 00:06:35;;;;;;;0.50;0.50;;;;;;;9.60;91.55;99833.03;6253518;23;20107;-81
2023/09/13 00:09:03;;;;;;;0.52;0.52;;;;;;;9.70;91.40;99828.00;6217072;23;20327;-81
2023/09/13 00:11:31;;;;;;;0.52;0.52;;;;;;;9.72;91.32;99829.44;6190987;23;20460;-81
2023/09/13 00:14:03;;;;;;;0.57;0.57;;;;;;;9.70;91.35;99828.00;6244199;23;20078;-81
2023/09/13 00:16:33;;;;;;;0.55;0.55;;;;;;;9.67;91.39;99826.56;6217880;23;20024;-81
2023/09/13 00:19:03;;;;;;;0.60;0.60;;;;;;;9.63;91.29;99829.91;6244006;23;20035;-81
2023/09/13 00:21:31;;;;;;;0.50;0.50;;;;;;;9.58;91.49;99824.34;6216950;23;20448;-82
2023/09/13 00:24:02;;;;;;;0.52;0.52;;;;;;;9.58;91.63;99818.97;6243560;23;20031;-81
2023/09/13 00:26:29;;;;;;;0.60;0.60;;;;;;;9.52;91.83;99829.56;6216881;23;20106;-81
2023/09/13 00:29:02;;;;;;;0.60;0.60;;;;;;;9.50;91.91;99822.75;6243701;23;20028;-81
2023/09/13 00:31:29;;;;;;;0.50;0.50;;;;;;;9.44;91.80;99824.41;6211963;23;20024;-81
2023/09/13 00:33:58;;;;;;;0.50;0.50;;;;;;;9.40;92.21;99833.16;6216065;23;20017;-83
2023/09/13 00:36:25;;;;;;;0.60;0.60;;;;;;;9.31;92.35;99829.88;6229532;23;20080;-81
2023/09/13 00:38:53;;;;;;;0.60;0.60;;;;;;;9.34;92.44;99824.06;6218696;23;20061;-81
2023/09/13 00:41:23;;;;;;;0.60;0.60;;;;;;;9.30;92.51;99836.34;6213824;23;20016;-81
2023/09/13 00:43:50;;;;;;;0.50;0.50;;;;;;;9.22;92.63;99839.28;6214287;23;20025;-81
2023/09/13 00:46:19;;;;;;;0.60;0.60;;;;;;;9.14;92.97;99828.75;6211368;23;20094;-82
2023/09/13 00:48:47;;;;;;;0.60;0.60;;;;;;;9.15;93.16;99833.91;6211625;23;20407;-81
2023/09/13 00:51:14;;;;;;;0.60;0.60;;;;;;;9.11;93.52;99838.91;6186831;23;20048;-81
2023/09/13 00:53:42;;;;;;;0.60;0.60;;;;;;;9.11;93.64;99838.91;6213097;23;20052;-81
2023/09/13 00:56:11;;;;;;;0.60;0.60;;;;;;;9.17;93.67;99831.84;6213146;23;20044;-80
2023/09/13 00:58:42;;;;;;;0.50;0.50;;;;;;;9.11;94.06;99838.91;6213893;23;20029;-81
2023/09/13 01:01:09;;;;;;;0.50;0.50;;;;;;;9.10;94.09;99834.56;6212170;23;20024;-82
2023/09/13 01:03:38;;;;;;;0.60;0.60;;;;;;;9.06;94.06;99832.50;6211639;23;20031;-81
2023/09/13 01:06:06;;;;;;;0.50;0.50;;;;;;;9.02;94.13;99829.44;6212835;23;20479;-81
2023/09/13 01:08:35;;;;;;;0.60;0.60;;;;;;;8.99;94.25;99827.16;6212580;23;20024;-80
2023/09/13 01:11:03;;;;;;;0.60;0.60;;;;;;;8.96;94.57;99834.81;6211214;23;20032;-80
2023/09/13 01:13:30;;;;;;;0.60;0.60;;;;;;;8.85;94.63;99826.38;6186540;23;20024;-81
2023/09/13 01:16:14;;;;;;;0.60;0.60;;;;;;;8.88;95.15;99825.13;6186203;23;20361;-81
2023/09/13 01:18:50;;;;;;;0.60;0.60;;;;;;;8.88;94.98;99830.50;6138258;23;20028;-82
2023/09/13 01:21:26;;;;;;;0.60;0.60;;;;;;;8.93;95.33;99828.00;6212224;23;20051;-81
2023/09/13 01:24:12;;;;;;;0.50;0.50;;;;;;;8.93;95.17;99830.69;6212775;23;20030;-81
2023/09/13 01:27:18;;;;;;;0.60;0.60;;;;;;;8.95;95.14;99831.31;6186669;23;20027;-81
2023/09/13 01:29:47;;;;;;;0.60;0.60;;;;;;;8.87;95.14;99835.06;6181050;23;20028;-82
2023/09/13 01:32:14;;;;;;;0.60;0.60;;;;;;;8.84;95.16;99834.69;6186095;23;20103;-81
2023/09/13 01:34:42;;;;;;;0.50;0.50;;;;;;;8.77;95.44;99829.31;6212498;23;20020;-81
2023/09/13 01:37:10;;;;;;;0.50;0.50;;;;;;;8.75;95.57;99830.56;6212935;23;20099;-82
2023/09/13 01:39:37;;;;;;;0.50;0.50;;;;;;;8.76;95.64;99838.44;6210776;23;20083;-81
2023/09/13 01:42:05;;;;;;;0.60;0.60;;;;;;;8.70;96.01;99835.75;6212343;23;20020;-81
2023/09/13 01:44:34;;;;;;;0.60;0.60;;;;;;;8.66;95.96;99841.56;6185768;23;20044;-80
2023/09/13 01:47:03;;;;;;;0.60;0.60;;;;;;;8.67;96.56;99828.94;6211288;23;20025;-81
2023/09/13 01:49:31;;;;;;;0.50;0.50;;;;;;;8.70;96.45;99839.28;6210844;23;20043;-82
2023/09/13 01:51:58;;;;;;;0.60;0.60;;;;;;;8.66;96.22;99833.50;6211385;23;20021;-82
2023/09/13 01:54:25;;;;;;;0.55;0.55;;;;;;;8.60;96.45;99834.31;6186353;23;20103;-82
2023/09/13 01:56:52;;;;;;;0.50;0.50;;;;;;;8.57;96.46;99834.75;6211104;23;20483;-82
2023/09/13 01:59:20;;;;;;;0.60;0.60;;;;;;;8.55;96.87;99836.81;6211185;23;20021;-81
2023/09/13 02:01:48;;;;;;;0.60;0.60;;;;;;;8.55;96.87;99842.22;6211014;23;20467;-82
2023/09/13 02:04:15;;;;;;;0.70;0.70;;;;;;;8.51;97.01;99840.16;6212447;23;20044;-82
2023/09/13 02:06:43;;;;;;;0.60;0.60;;;;;;;8.50;97.09;99850.09;6211011;23;20021;-82
2023/09/13 02:09:11;;;;;;;0.60;0.60;;;;;;;8.48;97.65;99846.78;6212734;23;20021;-81
2023/09/13 02:11:38;;;;;;;0.60;0.60;;;;;;;8.46;97.74;99856.94;6212317;23;20025;-82
2023/09/13 02:14:05;;;;;;;0.63;0.63;;;;;;;8.39;97.99;99850.72;6212590;23;20021;-82
2023/09/13 02:16:32;;;;;;;0.60;0.60;;;;;;;8.39;98.55;99848.03;6210430;23;20337;-82
2023/09/13 02:19:00;;;;;;;0.50;0.50;;;;;;;8.49;98.75;99845.75;6212435;23;20020;-80
2023/09/13 02:21:31;;;;;;;0.60;0.60;;;;;;;8.59;98.56;99854.22;6210438;23;20451;-81
2023/09/13 02:23:59;;;;;;;0.52;0.52;;;;;;;8.65;98.73;99847.97;6210814;23;20468;-82
2023/09/13 02:26:26;;;;;;;0.60;0.60;;;;;;;8.66;98.74;99846.13;6212203;23;20017;-80
2023/09/13 02:28:56;;;;;;;0.60;0.60;;;;;;;8.62;98.60;99848.41;6210592;23;20060;-81
2023/09/13 02:31:31;;;;;;;0.60;0.60;;;;;;;8.63;98.73;99850.06;6185534;23;20483;-81
2023/09/13 02:33:58;;;;;;;0.60;0.60;;;;;;;8.62;99.09;99845.72;6212838;23;20442;-82
2023/09/13 02:36:28;;;;;;;0.60;0.60;;;;;;;8.62;99.08;99848.41;6214457;23;20025;-82
2023/09/13 02:38:58;;;;;;;0.60;0.60;;;;;;;8.61;99.04;99841.38;6213230;23;20355;-81
2023/09/13 02:41:25;;;;;;;0.60;0.60;;;;;;;8.64;98.97;99840.94;6187565;23;20495;-81
2023/09/13 02:43:52;;;;;;;0.60;0.60;;;;;;;8.66;98.97;99844.25;6214720;23;20079;-81
2023/09/13 02:46:24;;;;;;;0.60;0.60;;;;;;;8.58;99.09;99839.13;6213821;23;20111;-82
2023/09/13 02:48:52;;;;;;;0.60;0.60;;;;;;;8.66;99.37;99838.88;6212609;23;20024;-81
2023/09/13 02:51:19;;;;;;;0.60;0.60;;;;;;;8.65;99.27;99847.97;6212736;23;20028;-81
2023/09/13 02:53:47;;;;;;;0.60;0.60;;;;;;;8.59;99.31;99845.31;6214040;23;20360;-80
2023/09/13 02:56:14;;;;;;;0.60;0.60;;;;;;;8.57;99.63;99840.13;6212488;23;20043;-82
2023/09/13 02:58:49;;;;;;;0.60;0.60;;;;;;;8.56;99.75;99835.81;6212540;23;20111;-81
2023/09/13 03:01:17;;;;;;;0.60;0.60;;;;;;;8.52;99.67;99839.94;6213898;23;20111;-81
2023/09/13 03:03:47;;;;;;;0.70;0.70;;;;;;;8.50;99.90;99846.56;6187326;23;20076;-82
2023/09/13 03:06:20;;;;;;;0.60;0.60;;;;;;;8.48;100.00;99846.78;6212258;23;20021;-80
2023/09/13 03:08:47;;;;;;;0.60;0.60;;;;;;;8.52;100.00;99847.19;6214505;23;20016;-82
2023/09/13 03:11:16;;;;;;;0.60;0.60;;;;;;;8.55;100.00;99844.91;6214064;23;20075;-80
2023/09/13 03:13:45;;;;;;;0.60;0.60;;;;;;;8.56;100.00;99843.88;6212420;23;20028;-82
2023/09/13 03:16:23;;;;;;;0.60;0.60;;;;;;;8.64;100.00;99843.66;6212275;23;20052;-82
2023/09/13 03:18:51;;;;;;;0.60;0.60;;;;;;;8.69;99.86;99843.00;6214304;23;20028;-82
2023/09/13 03:21:24;;;;;;;0.50;0.50;;;;;;;8.67;99.76;99837.84;6213859;23;20403;-82
2023/09/13 03:23:53;;;;;;;0.60;0.60;;;;;;;8.68;99.61;99844.88;6225903;23;20020;-82
2023/09/13 03:26:24;;;;;;;0.60;0.60;;;;;;;8.68;99.67;99846.72;6220963;23;20021;-83
2023/09/13 03:28:54;;;;;;;0.60;0.60;;;;;;;8.71;99.56;99845.47;6214128;23;20044;-82
2023/09/13 03:31:24;;;;;;;0.60;0.60;;;;;;;8.80;99.30;99853.09;6211846;23;20108;-83
2023/09/13 03:33:55;;;;;;;0.60;0.60;;;;;;;8.90;99.18;99853.50;6187711;23;20046;-82
2023/09/13 03:36:28;;;;;;;0.50;0.50;;;;;;;9.07;98.48;99866.50;6211978;23;20031;-82
2023/09/13 03:39:05;;;;;;;0.60;0.60;;;;;;;9.06;98.20;99856.75;6212671;23;20104;-82
2023/09/13 03:41:38;;;;;;;0.60;0.60;;;;;;;9.10;98.11;99858.78;6212185;23;20020;-83
2023/09/13 03:44:07;;;;;;;0.60;0.60;;;;;;;9.14;97.93;99858.34;6162199;23;20356;-81
2023/09/13 03:46:35;;;;;;;0.60;0.60;;;;;;;9.18;97.59;99856.91;6212103;23;20082;-82
2023/09/13 03:49:02;;;;;;;0.60;0.60;;;;;;;9.23;97.47;99870.56;6211667;23;20020;-81
2023/09/13 03:51:31;;;;;;;0.60;0.60;;;;;;;9.29;97.53;99859.75;6186886;23;20024;-82
2023/09/13 03:53:58;;;;;;;0.60;0.60;;;;;;;9.33;97.24;99857.44;6216583;23;20021;-83
2023/09/13 03:56:28;;;;;;;0.60;0.60;;;;;;;9.40;97.15;99870.88;6223292;23;20025;-82
2023/09/13 03:58:55;;;;;;;0.50;0.50;;;;;;;9.47;97.00;99872.50;6214087;23;20079;-84
2023/09/13 04:01:24;;;;;;;0.60;0.60;;;;;;;9.57;96.64;99879.28;6211206;23;20452;-82
2023/09/13 04:03:51;;;;;;;0.60;0.60;;;;;;;9.67;96.47;99871.53;6212116;23;20399;-82
2023/09/13 04:06:19;;;;;;;0.50;0.50;;;;;;;9.75;96.25;99869.41;6211983;23;20020;-81
2023/09/13 04:08:48;;;;;;;0.60;0.60;;;;;;;9.82;95.87;99877.44;6187365;23;20031;-82
2023/09/13 04:11:17;;;;;;;0.60;0.60;;;;;;;9.85;95.32;99871.63;6213229;23;20079;-82
2023/09/13 04:13:45;;;;;;;0.60;0.60;;;;;;;9.84;95.09;99867.28;6213475;23;20348;-83
2023/09/13 04:16:15;;;;;;;0.60;0.60;;;;;;;9.88;95.02;99875.78;6187706;23;20026;-82
2023/09/13 04:18:42;;;;;;;0.60;0.60;;;;;;;9.92;94.87;99874.25;6210231;23;20578;-83
2023/09/13 04:21:09;;;;;;;0.60;0.60;;;;;;;10.00;94.50;99887.47;6212664;23;20025;-83
2023/09/13 04:23:37;;;;;;;0.60;0.60;;;;;;;10.03;94.28;99891.63;6210126;23;20787;-82
2023/09/13 04:26:04;;;;;;;0.60;0.60;;;;;;;10.09;94.01;99890.75;6211401;23;20031;-82
2023/09/13 04:28:35;;;;;;;0.50;0.50;;;;;;;10.18;93.94;99892.94;6211392;23;20431;-82
2023/09/13 04:31:03;;;;;;;0.60;0.60;;;;;;;10.25;93.74;99890.19;6211118;23;20035;-82
2023/09/13 04:33:54;;;;;;;0.60;0.60;;;;;;;10.45;93.30;99894.63;6185699;23;20047;-82
2023/09/13 04:36:29;;;;;;;0.60;0.60;;;;;;;10.53;92.67;99897.88;6187729;23;20024;-81
2023/09/13 04:38:57;;;;;;;0.60;0.60;;;;;;;10.65;92.01;99900.63;6211414;23;20095;-81
2023/09/13 04:41:26;;;;;;;0.60;0.60;;;;;;;10.65;91.66;99889.84;6210917;23;20067;-85
2023/09/13 04:43:53;;;;;;;0.60;0.60;;;;;;;10.80;91.56;99889.50;6211435;23;20099;-86
2023/09/13 04:46:20;;;;;;;0.60;0.60;;;;;;;10.91;91.08;99896.00;6210375;23;20029;-84
2023/09/13 04:48:48;;;;;;;0.60;0.60;;;;;;;10.98;90.67;99902.16;6211162;23;20033;-84
2023/09/13 04:51:15;;;;;;;0.60;0.60;;;;;;;11.05;90.14;99894.81;6210476;23;20047;-87
2023/09/13 04:53:43;;;;;;;0.50;0.50;;;;;;;11.11;89.67;99893.06;6212250;23;20024;-85
2023/09/13 04:56:19;;;;;;;0.50;0.50;;;;;;;11.26;89.31;99891.63;6206962;23;20025;-82
2023/09/13 04:58:47;;;;;;;0.60;0.60;;;;;;;11.28;88.42;99888.72;6208086;23;20460;-85
2023/09/13 05:01:16;;;;;;;0.60;0.60;;;;;;;11.37;87.94;99889.22;6207086;23;20020;-83
2023/09/13 05:03:48;;;;;;;0.60;0.60;;;;;;;11.46;87.62;99890.56;6205734;23;20091;-86
2023/09/13 05:06:16;;;;;;;0.68;0.68;;;;;;;11.55;87.00;99885.66;6209787;23;20028;-82
2023/09/13 05:08:46;;;;;;;0.60;0.60;;;;;;;11.60;86.44;99889.31;6210473;23;20021;-83
2023/09/13 05:11:14;;;;;;;0.60;0.60;;;;;;;11.70;85.83;99889.59;6211220;23;20032;-83
2023/09/13 05:13:42;;;;;;;0.60;0.60;;;;;;;11.79;84.85;99895.50;6211102;23;20044;-82
2023/09/13 05:16:12;;;;;;;0.50;0.50;;;;;;;11.84;84.33;99892.09;6211127;23;20020;-84
2023/09/13 05:18:40;;;;;;;0.60;0.60;;;;;;;11.89;83.87;99892.25;6210434;23;20378;-85
2023/09/13 05:21:07;;;;;;;0.70;0.70;;;;;;;12.00;83.48;99890.63;6211179;23;20020;-82
2023/09/13 05:23:34;;;;;;;0.60;0.60;;;;;;;12.12;82.75;99889.59;6210810;23;20112;-83
2023/09/13 05:26:02;;;;;;;0.60;0.60;;;;;;;12.18;82.70;99890.56;6212615;23;20025;-84
2023/09/13 05:28:33;;;;;;;0.60;0.60;;;;;;;12.31;82.17;99886.81;6210302;23;20024;-85
2023/09/13 05:31:01;;;;;;;0.68;0.68;;;;;;;12.50;81.56;99891.03;6219693;23;20024;-83
2023/09/13 05:33:31;;;;;;;0.60;0.60;;;;;;;12.58;80.63;99897.97;6216758;23;20024;-84
2023/09/13 05:35:58;;;;;;;0.60;0.60;;;;;;;12.64;80.01;99893.53;6244182;23;20031;-84
2023/09/13 05:38:25;;;;;;;0.60;0.60;;;;;;;12.74;79.59;99893.75;6218810;23;20702;-83
2023/09/13 05:40:53;;;;;;;0.50;0.50;;;;;;;12.79;79.59;99894.69;6245268;22;20024;-85
2023/09/13 05:43:20;;;;;;;0.55;0.55;;;;;;;12.99;78.58;99897.00;6195586;23;20375;-84
2023/09/13 05:45:48;;;;;;;0.60;0.60;;;;;;;13.19;77.66;99883.06;6247118;23;20024;-84
2023/09/13 05:48:18;;;;;;;0.60;0.60;;;;;;;13.21;76.36;99874.69;6221168;23;20046;-84
2023/09/13 05:50:48;;;;;;;0.60;0.60;;;;;;;13.37;76.02;99882.09;6246702;23;20034;-84
2023/09/13 05:53:28;;;;;;;0.50;0.50;;;;;;;13.53;75.51;99893.22;6244133;23;20455;-84
2023/09/13 05:56:03;;;;;;;0.50;0.50;;;;;;;13.49;74.17;99882.03;6217972;23;20031;-83
2023/09/13 05:58:46;;;;;;;0.60;0.60;;;;;;;13.64;73.46;99898.59;6218739;23;20027;-83
2023/09/13 06:01:14;;;;;;;0.60;0.60;;;;;;;13.80;72.97;99888.84;6247755;23;20026;-83
2023/09/13 06:03:43;;;;;;;0.50;0.50;;;;;;;13.87;72.31;99892.25;6193929;23;20113;-85
2023/09/13 06:06:11;;;;;;;0.60;0.60;;;;;;;13.92;71.54;99891.47;6244459;23;20026;-84
2023/09/13 06:08:38;;;;;;;0.50;0.50;;;;;;;13.98;70.77;99895.94;6245748;23;20086;-84
2023/09/13 06:11:08;;;;;;;0.50;0.50;;;;;;;13.99;70.47;99897.59;6242987;23;20123;-84
2023/09/13 06:13:35;;;;;;;0.50;0.50;;;;;;;14.16;69.97;99891.34;6245210;23;20074;-84
2023/09/13 06:16:03;;;;;;;0.50;0.50;;;;;;;14.29;69.01;99891.03;6219998;23;20020;-82
2023/09/13 06:18:33;;;;;;;0.50;0.50;;;;;;;14.26;68.81;99891.53;6244953;23;20082;-84
2023/09/13 06:21:00;;;;;;;0.50;0.50;;;;;;;14.29;68.00;99891.84;6220810;23;20020;-84
2023/09/13 06:23:36;;;;;;;0.50;0.50;;;;;;;14.31;67.95;99897.03;6246257;23;20102;-84
2023/09/13 06:26:05;;;;;;;0.50;0.50;;;;;;;14.32;67.88;99893.25;6194929;23;20122;-83
2023/09/13 06:28:33;;;;;;;0.50;0.50;;;;;;;14.41;68.08;99894.47;6218656;23;20027;-84
2023/09/13 06:31:00;;;;;;;0.50;0.50;;;;;;;14.56;67.38;99891.22;6168495;23;20498;-84
2023/09/13 06:33:31;;;;;;;0.50;0.50;;;;;;;14.64;66.75;99893.50;6193923;23;20024;-84
2023/09/13 06:36:01;;;;;;;0.50;0.50;;;;;;;14.77;65.22;99891.50;6195784;23;20020;-86
2023/09/13 06:38:31;;;;;;;0.47;0.47;;;;;;;14.83;64.65;99888.59;6218991;23;20028;-84
2023/09/13 06:41:02;;;;;;;0.50;0.50;;;;;;;14.99;63.73;99903.22;6219720;23;20031;-84
2023/09/13 06:43:38;;;;;;;0.57;0.57;;;;;;;14.98;63.27;99896.13;6221942;23;20046;-85
2023/09/13 06:46:25;;;;;;;0.50;0.50;;;;;;;15.15;63.16;99893.34;6239382;23;20019;-84
2023/09/13 06:48:54;;;;;;;0.50;0.50;;;;;;;15.37;62.93;99904.25;6256305;23;20030;-84
2023/09/13 06:51:22;;;;;;;0.50;0.50;;;;;;;15.42;62.04;99892.56;6244777;23;20023;-84
2023/09/13 06:54:09;;;;;;;0.50;0.50;;;;;;;15.43;61.22;99903.22;6218241;23;20024;-84
2023/09/13 06:56:43;;;;;;;0.40;0.40;;;;;;;15.52;61.21;99904.41;6219830;23;20067;-84
2023/09/13 06:59:14;;;;;;;0.50;0.50;;;;;;;15.59;60.45;99910.44;6245531;23;20023;-83
2023/09/13 07:01:44;;;;;;;0.50;0.50;;;;;;;15.66;60.36;99909.44;6245248;23;20020;-83
2023/09/13 07:04:32;;;;;;;0.50;0.50;;;;;;;15.77;60.19;99905.75;6218491;23;20024;-83
2023/09/13 07:07:07;;;;;;;0.50;0.50;;;;;;;15.88;59.29;99906.72;6220507;23;20027;-84
2023/09/13 07:09:34;;;;;;;0.50;0.50;;;;;;;15.88;59.21;99904.81;6217639;23;20051;-83
2023/09/13 07:12:02;;;;;;;0.50;0.50;;;;;;;16.02;59.21;99906.00;6245487;23;20115;-83
2023/09/13 07:14:30;;;;;;;0.50;0.50;;;;;;;16.21;58.92;99900.19;6218161;23;20032;-84
2023/09/13 07:16:58;;;;;;;0.50;0.50;;;;;;;16.40;58.50;99904.16;6170828;23;20081;-82
2023/09/13 07:19:25;;;;;;;0.55;0.55;;;;;;;16.46;58.12;99899.56;6187644;23;20103;-83
2023/09/13 07:21:53;;;;;;;0.50;0.50;;;;;;;16.42;58.30;99904.72;6201451;23;20401;-84
2023/09/13 07:24:23;;;;;;;0.50;0.50;;;;;;;16.54;57.90;99890.09;6245185;23;20059;-84
2023/09/13 07:26:50;;;;;;;0.50;0.50;;;;;;;16.83;56.05;99899.56;6244423;23;20467;-83
2023/09/13 07:29:21;;;;;;;0.50;0.50;;;;;;;16.97;56.16;99901.84;6244244;23;20020;-83
2023/09/13 07:31:48;;;;;;;0.50;0.50;;;;;;;16.93;56.24;99896.06;6244032;23;20463;-83
2023/09/13 07:34:17;;;;;;;0.50;0.50;;;;;;;16.95;56.22;99896.63;6244264;23;20031;-83
2023/09/13 07:37:00;;;;;;;0.50;0.50;;;;;;;17.18;55.51;99902.75;6244193;23;20510;-83
2023/09/13 07:39:30;;;;;;;0.50;0.50;;;;;;;17.23;54.63;99906.31;6217675;23;20027;-83
2023/09/13 07:41:58;;;;;;;0.60;0.60;;;;;;;17.27;53.78;99904.69;6244049;22;20034;-84
2023/09/13 07:44:27;;;;;;;0.50;0.50;;;;;;;17.37;53.22;99909.38;6192129;23;20023;-84
2023/09/13 07:46:54;;;;;;;0.60;0.60;;;;;;;17.47;52.80;99909.41;6216406;23;20027;-83
2023/09/13 07:49:28;;;;;;;0.50;0.50;;;;;;;17.44;52.17;99901.72;6243670;23;20035;-83
2023/09/13 07:51:56;;;;;;;0.50;0.50;;;;;;;17.47;51.62;99905.84;6243080;23;20593;-83
2023/09/13 07:54:23;;;;;;;0.50;0.50;;;;;;;17.52;52.30;99909.41;6217447;23;20355;-83
2023/09/13 07:56:50;;;;;;;0.50;0.50;;;;;;;17.85;52.19;99906.50;6243659;23;20024;-83
2023/09/13 07:59:18;;;;;;;0.50;0.50;;;;;;;18.15;51.58;99892.91;6243768;23;20020;-85
2023/09/13 08:01:49;;;;;;;0.50;0.50;;;;;;;18.59;51.13;99895.03;6243781;23;20107;-84
2023/09/13 08:04:18;;;;;;;0.50;0.50;;;;;;;18.76;50.72;99900.25;6217393;23;20098;-83
2023/09/13 08:06:46;;;;;;;0.50;0.50;;;;;;;18.92;49.39;99897.47;6217246;23;20352;-83
2023/09/13 08:09:16;;;;;;;0.50;0.50;;;;;;;19.33;48.60;99897.31;6243757;23;20022;-84
2023/09/13 08:11:45;;;;;;;0.60;0.60;;;;;;;19.87;46.66;99897.28;6244090;23;20024;-84
2023/09/13 08:14:12;;;;;;;0.50;0.50;;;;;;;20.38;46.11;99889.78;6244106;23;20024;-84
2023/09/13 08:16:39;;;;;;;0.50;0.50;;;;;;;20.61;44.70;99896.44;6217059;23;20467;-83
2023/09/13 08:19:14;;;;;;;0.52;0.52;;;;;;;20.59;44.85;99885.78;6217355;23;20027;-83
2023/09/13 08:21:42;;;;;;;0.50;0.50;;;;;;;20.58;44.86;99886.06;6191624;23;20051;-84
2023/09/13 08:24:12;;;;;;;0.60;0.60;;;;;;;20.62;44.73;99889.88;6244068;23;20024;-83
2023/09/13 08:26:39;;;;;;;0.60;0.60;;;;;;;20.99;43.83;99889.19;6166802;23;20471;-84
2023/09/13 08:29:07;;;;;;;0.60;0.60;;;;;;;21.47;43.28;99885.59;6217028;23;20467;-83
2023/09/13 08:31:34;;;;;;;0.60;0.60;;;;;;;21.85;42.28;99879.00;6242350;23;20529;-83
2023/09/13 08:34:04;;;;;;;0.50;0.50;;;;;;;22.17;41.54;99879.31;6243276;23;20048;-83
2023/09/13 08:36:33;;;;;;;0.60;0.60;;;;;;;22.41;41.04;99882.00;6191801;23;20020;-83
2023/09/13 08:39:00;;;;;;;0.60;0.60;;;;;;;22.69;40.06;99875.41;6243393;23;20404;-84
2023/09/13 08:41:28;;;;;;;0.50;0.50;;;;;;;22.84;40.15;99876.22;6242878;22;20047;-84
2023/09/13 08:43:56;;;;;;;0.60;0.60;;;;;;;22.88;40.11;99869.81;6192057;23;20047;-83
2023/09/13 08:46:27;;;;;;;0.60;0.60;;;;;;;22.73;39.88;99875.59;6191648;23;20478;-83
2023/09/13 08:48:56;;;;;;;0.57;0.57;;;;;;;22.59;39.82;99880.28;6217993;23;20459;-83
2023/09/13 08:51:23;;;;;;;0.50;0.50;;;;;;;22.54;39.59;99872.94;6217517;23;20020;-84
2023/09/13 08:53:53;;;;;;;0.60;0.60;;;;;;;23.05;38.54;99880.25;6217038;23;20364;-83
2023/09/13 08:56:21;;;;;;;0.50;0.50;;;;;;;23.56;37.79;99867.31;6243884;23;20059;-84
2023/09/13 08:58:48;;;;;;;0.50;0.50;;;;;;;23.74;37.31;99876.56;6243039;23;20487;-83
2023/09/13 09:01:16;;;;;;;0.50;0.50;;;;;;;24.06;37.53;99866.47;6216720;23;20028;-84
2023/09/13 09:03:46;;;;;;;0.50;0.50;;;;;;;24.19;37.43;99866.38;6216166;23;20020;-82
2023/09/13 09:06:17;;;;;;;0.60;0.60;;;;;;;24.40;36.58;99860.34;6243453;23;20333;-83
2023/09/13 09:08:48;;;;;;;0.50;0.50;;;;;;;24.49;35.54;99864.00;6192063;23;20026;-83
2023/09/13 09:11:18;;;;;;;0.50;0.50;;;;;;;24.71;36.12;99854.03;6242801;23;20081;-83
2023/09/13 09:13:45;;;;;;;0.50;0.50;;;;;;;25.02;34.75;99849.28;6242930;23;20020;-84
2023/09/13 09:16:17;;;;;;;0.50;0.50;;;;;;;24.80;34.39;99841.91;6193260;23;20110;-83
2023/09/13 09:18:45;;;;;;;0.50;0.50;;;;;;;24.84;33.63;99853.13;6216753;23;20048;-85
2023/09/13 09:21:13;;;;;;;0.50;0.50;;;;;;;25.06;34.42;99844.72;6192028;23;20035;-83
2023/09/13 09:23:41;;;;;;;0.50;0.50;;;;;;;25.62;32.89;99845.00;6217783;23;20020;-83
2023/09/13 09:26:11;;;;;;;0.50;0.50;;;;;;;26.06;32.98;99837.53;6217801;23;20073;-83
2023/09/13 09:28:43;;;;;;;0.50;0.50;;;;;;;26.27;31.59;99848.72;6242008;23;20088;-84
2023/09/13 09:31:12;;;;;;;0.50;0.50;;;;;;;26.15;31.88;99843.03;6238739;23;20051;-82
2023/09/13 09:33:42;;;;;;;0.50;0.50;;;;;;;26.24;31.45;99838.31;6211769;23;20075;-84
2023/09/13 09:36:13;;;;;;;0.50;0.50;;;;;;;26.33;31.46;99847.41;6238461;23;20055;-85
2023/09/13 09:38:44;;;;;;;0.50;0.50;;;;;;;26.58;31.35;99844.91;6212583;23;20028;-82
2023/09/13 09:41:13;;;;;;;0.50;0.50;;;;;;;26.84;30.59;99849.53;6212011;23;20027;-83
2023/09/13 09:43:43;;;;;;;0.50;0.50;;;;;;;26.91;29.48;99844.28;6238515;23;20020;-82
2023/09/13 09:46:10;;;;;;;0.50;0.50;;;;;;;26.78;29.59;99848.91;6211851;23;20446;-82
2023/09/13 09:48:41;;;;;;;0.50;0.50;;;;;;;26.14;30.01;99844.19;6238549;23;20042;-83
2023/09/13 09:51:12;;;;;;;0.50;0.50;;;;;;;26.32;30.70;99847.75;6237266;23;20019;-83
2023/09/13 09:53:40;;;;;;;0.50;0.50;;;;;;;26.86;29.31;99839.75;6238353;23;20031;-83
2023/09/13 09:56:07;;;;;;;0.40;0.40;;;;;;;27.31;28.62;99841.97;6239482;23;20019;-83
2023/09/13 09:58:35;;;;;;;0.50;0.50;;;;;;;27.54;28.71;99827.78;6211600;23;20118;-83
2023/09/13 10:01:02;;;;;;;0.50;0.50;;;;;;;27.93;28.38;99834.81;6211471;23;20028;-85
2023/09/13 10:03:38;;;;;;;0.50;0.50;;;;;;;27.90;28.15;99840.22;6187856;23;20074;-83
2023/09/13 10:06:12;;;;;;;0.50;0.50;;;;;;;28.31;27.76;99839.34;6212808;23;20026;-86
2023/09/13 10:08:40;;;;;;;0.50;0.50;;;;;;;28.59;27.29;99838.69;6212548;23;20368;-85
2023/09/13 10:11:13;;;;;;;0.50;0.50;;;;;;;28.70;27.27;99828.78;6241141;23;20024;-86
2023/09/13 10:13:42;;;;;;;0.45;0.45;;;;;;;29.08;27.04;99834.00;6214447;23;20024;-84
2023/09/13 10:16:11;;;;;;;0.50;0.50;;;;;;;29.19;26.99;99828.78;6214717;23;20455;-84
2023/09/13 10:18:46;;;;;;;0.50;0.50;;;;;;;29.10;26.83;99817.78;6224322;23;20017;-85
2023/09/13 10:21:17;;;;;;;0.40;0.40;;;;;;;29.62;26.26;99829.25;6251542;23;20027;-85
2023/09/13 10:23:45;;;;;;;0.40;0.40;;;;;;;29.22;27.04;99827.25;6213700;23;20729;-86
2023/09/13 10:26:17;;;;;;;0.43;0.43;;;;;;;29.37;26.94;99818.19;6213049;23;20538;-84
2023/09/13 10:28:49;;;;;;;0.40;0.40;;;;;;;29.42;26.72;99819.94;6238315;23;20028;-83
2023/09/13 10:31:49;;;;;;;0.40;0.40;;;;;;;29.02;26.57;99820.66;6186547;23;20020;-83
2023/09/13 10:34:25;;;;;;;0.50;0.50;;;;;;;28.72;27.91;99821.72;6213332;23;20490;-85
2023/09/13 10:37:05;;;;;;;0.40;0.40;;;;;;;28.86;26.67;99810.25;6212216;23;20051;-85
2023/09/13 10:39:40;;;;;;;0.40;0.40;;;;;;;28.86;26.72;99801.91;6186039;22;20034;-85
2023/09/13 10:42:07;;;;;;;0.50;0.50;;;;;;;28.79;26.87;99818.38;6211759;23;20127;-85
2023/09/13 10:44:38;;;;;;;0.43;0.43;;;;;;;29.00;26.67;99809.09;6241344;23;20448;-86
2023/09/13 10:47:06;;;;;;;0.50;0.50;;;;;;;28.84;26.73;99817.31;6215233;23;20024;-84
2023/09/13 10:49:36;;;;;;;0.40;0.40;;;;;;;29.43;26.42;99816.81;6242766;23;20024;-86
2023/09/13 10:52:05;;;;;;;0.40;0.40;;;;;;;29.70;25.96;99815.25;6217063;23;20048;-86
2023/09/13 10:54:39;;;;;;;0.40;0.40;;;;;;;30.05;25.21;99817.41;6245116;23;20020;-85
2023/09/13 10:57:06;;;;;;;0.40;0.40;;;;;;;29.99;25.76;99804.91;6225780;23;20073;-85
2023/09/13 10:59:34;;;;;;;0.40;0.40;;;;;;;30.56;24.99;99808.41;6213483;23;20016;-85
2023/09/13 11:02:05;;;;;;;0.40;0.40;;;;;;;30.96;24.69;99815.78;6223705;23;20490;-86
2023/09/13 11:04:32;;;;;;;0.40;0.40;;;;;;;30.64;24.30;99785.97;6245400;23;20048;-86
2023/09/13 11:07:01;;;;;;;0.40;0.40;;;;;;;29.22;26.15;99796.69;6217338;23;20016;-85
2023/09/13 11:09:31;;;;;;;0.40;0.40;;;;;;;29.69;26.08;99808.06;6244656;23;20042;-84
2023/09/13 11:11:59;;;;;;;0.40;0.40;;;;;;;29.68;25.80;99809.22;6168017;23;20451;-87
2023/09/13 11:14:30;;;;;;;0.40;0.40;;;;;;;30.12;25.38;99800.09;6244505;23;20016;-86
2023/09/13 11:17:10;;;;;;;0.40;0.40;;;;;;;30.93;25.11;99814.53;6245325;23;20054;-85
2023/09/13 11:19:40;;;;;;;0.40;0.40;;;;;;;31.46;24.29;99803.78;6218704;23;20391;-85
2023/09/13 11:22:08;;;;;;;0.50;0.50;;;;;;;31.52;24.34;99805.13;6192425;23;20030;-87
2023/09/13 11:24:45;;;;;;;0.40;0.40;;;;;;;31.24;24.07;99810.84;6218312;23;20031;-86
2023/09/13 11:27:17;;;;;;;0.40;0.40;;;;;;;30.23;25.37;99809.53;6220828;23;20042;-85
2023/09/13 11:29:47;;;;;;;0.40;0.40;;;;;;;30.30;24.94;99811.72;6191967;23;20070;-86
2023/09/13 11:32:21;;;;;;;0.40;0.40;;;;;;;30.15;24.71;99814.09;6219104;23;20050;-88
2023/09/13 11:35:00;;;;;;;0.50;0.50;;;;;;;30.37;25.15;99811.91;6216417;23;20024;-84
2023/09/13 11:37:32;;;;;;;0.45;0.45;;;;;;;30.93;24.80;99800.59;6217451;23;20523;-84
2023/09/13 11:40:13;;;;;;;0.40;0.40;;;;;;;31.76;23.87;99806.00;6217325;23;20043;-83
2023/09/13 11:42:44;;;;;;;0.50;0.50;;;;;;;32.10;23.12;99795.13;6242615;23;20455;-85
2023/09/13 11:45:30;;;;;;;0.40;0.40;;;;;;;32.39;23.08;99790.84;6221838;23;20030;-85
2023/09/13 11:48:04;;;;;;;0.40;0.40;;;;;;;32.26;22.89;99795.00;6219206;23;20542;-84
2023/09/13 11:50:44;;;;;;;0.30;0.30;;;;;;;31.34;23.81;99798.31;6242922;23;20518;-85